createdAt,value
2016-09-25T00:00:11.662Z,0
2016-09-25T00:00:32.237Z,0
2016-09-25T00:00:52.855Z,0
2016-09-25T00:01:13.449Z,0
2016-09-25T00:01:34.037Z,0
2016-09-25T00:01:54.598Z,0
2016-09-25T00:02:15.189Z,0
2016-09-25T00:02:35.770Z,0
2016-09-25T00:02:56.393Z,0
2016-09-25T00:03:16.985Z,0
2016-09-25T00:03:37.553Z,0
2016-09-25T00:03:58.159Z,0
2016-09-25T00:04:18.753Z,0
2016-09-25T00:04:39.326Z,0
2016-09-25T00:04:59.921Z,0
2016-09-25T00:05:20.515Z,0
2016-09-25T00:05:41.101Z,0
2016-09-25T00:06:01.681Z,0
2016-09-25T00:06:22.289Z,0
2016-09-25T00:06:42.891Z,0
2016-09-25T00:07:03.475Z,0
2016-09-25T00:07:24.053Z,0
2016-09-25T00:07:44.653Z,0
2016-09-25T00:08:05.223Z,0
2016-09-25T00:08:25.818Z,0
2016-09-25T00:08:46.406Z,0
2016-09-25T00:09:06.987Z,0
2016-09-25T00:09:27.579Z,0
2016-09-25T00:09:48.168Z,0
2016-09-25T00:10:08.743Z,0
2016-09-25T00:10:29.316Z,0
2016-09-25T00:10:49.905Z,0
2016-09-25T00:11:10.509Z,0
2016-09-25T00:11:31.105Z,0
2016-09-25T00:11:51.689Z,0
2016-09-25T00:12:12.292Z,0
2016-09-25T00:12:32.865Z,0
2016-09-25T00:12:53.461Z,0
2016-09-25T00:13:14.065Z,0
2016-09-25T00:13:34.640Z,0
2016-09-25T00:13:55.221Z,0
2016-09-25T00:14:15.806Z,0
2016-09-25T00:14:36.420Z,0
2016-09-25T00:14:57.005Z,0
2016-09-25T00:15:17.578Z,0
2016-09-25T00:15:38.165Z,0
2016-09-25T00:15:58.743Z,0
2016-09-25T00:16:19.333Z,0
2016-09-25T00:16:39.948Z,0
2016-09-25T00:17:00.542Z,0
2016-09-25T00:17:21.124Z,0
2016-09-25T00:17:41.700Z,0
2016-09-25T00:18:02.295Z,0
2016-09-25T00:18:22.895Z,0
2016-09-25T00:18:43.463Z,0
2016-09-25T00:19:04.057Z,0
2016-09-25T00:19:24.661Z,0
2016-09-25T00:19:45.259Z,0
2016-09-25T00:20:05.838Z,0
2016-09-25T00:20:26.418Z,0
2016-09-25T00:20:47.001Z,0
2016-09-25T00:21:07.591Z,0
2016-09-25T00:21:28.190Z,0
2016-09-25T00:21:48.790Z,0
2016-09-25T00:22:09.368Z,0
2016-09-25T00:22:29.956Z,0
2016-09-25T00:22:50.540Z,0
2016-09-25T00:23:11.123Z,0
2016-09-25T00:23:31.726Z,0
2016-09-25T00:23:52.313Z,0
2016-09-25T00:24:12.915Z,0
2016-09-25T00:24:33.498Z,0
2016-09-25T00:24:54.111Z,0
2016-09-25T00:25:14.703Z,0
2016-09-25T00:25:35.288Z,0
2016-09-25T00:25:55.879Z,0
2016-09-25T00:26:16.464Z,0
2016-09-25T00:26:37.046Z,0
2016-09-25T00:26:57.634Z,0
2016-09-25T00:27:18.206Z,0
2016-09-25T00:27:38.787Z,0
2016-09-25T00:27:59.390Z,0
2016-09-25T00:28:19.976Z,0
2016-09-25T00:28:40.574Z,0
2016-09-25T00:29:01.154Z,0
2016-09-25T00:29:21.744Z,0
2016-09-25T00:29:42.338Z,0
2016-09-25T00:30:02.923Z,0
2016-09-25T00:30:23.515Z,0
2016-09-25T00:30:44.105Z,0
2016-09-25T00:31:04.700Z,0
2016-09-25T00:31:25.275Z,0
2016-09-25T00:31:45.844Z,0
2016-09-25T00:32:06.425Z,0
2016-09-25T00:32:27.015Z,0
2016-09-25T00:32:47.610Z,0
2016-09-25T00:33:08.217Z,0
2016-09-25T00:33:28.805Z,0
2016-09-25T00:33:49.376Z,0
2016-09-25T00:34:09.964Z,0
2016-09-25T00:34:30.555Z,0
2016-09-25T00:34:51.144Z,0
2016-09-25T00:35:11.708Z,0
2016-09-25T00:35:32.284Z,0
2016-09-25T00:35:52.856Z,0
2016-09-25T00:36:13.436Z,0
2016-09-25T00:36:34.033Z,0
2016-09-25T00:36:54.615Z,0
2016-09-25T00:37:15.208Z,0
2016-09-25T00:37:35.788Z,0
2016-09-25T00:37:56.371Z,0
2016-09-25T00:38:16.989Z,0
2016-09-25T00:38:37.575Z,0
2016-09-25T00:38:58.146Z,0
2016-09-25T00:39:18.725Z,0
2016-09-25T00:39:39.329Z,0
2016-09-25T00:39:59.932Z,0
2016-09-25T00:40:20.521Z,0
2016-09-25T00:40:41.111Z,0
2016-09-25T00:41:01.689Z,0
2016-09-25T00:41:22.266Z,0
2016-09-25T00:41:42.848Z,0
2016-09-25T00:42:03.426Z,0
2016-09-25T00:42:23.999Z,0
2016-09-25T00:42:44.600Z,0
2016-09-25T00:43:05.198Z,0
2016-09-25T00:43:25.793Z,0
2016-09-25T00:43:46.375Z,0
2016-09-25T00:44:06.942Z,0
2016-09-25T00:44:27.518Z,0
2016-09-25T00:44:48.115Z,0
2016-09-25T00:45:08.704Z,0
2016-09-25T00:45:29.285Z,0
2016-09-25T00:45:49.863Z,0
2016-09-25T00:46:10.448Z,0
2016-09-25T00:46:31.028Z,0
2016-09-25T00:46:51.611Z,0
2016-09-25T00:47:12.190Z,0
2016-09-25T00:47:32.781Z,0
2016-09-25T00:47:53.367Z,0
2016-09-25T00:48:13.967Z,0
2016-09-25T00:48:34.555Z,0
2016-09-25T00:48:55.104Z,0
2016-09-25T00:49:15.667Z,0
2016-09-25T00:49:36.259Z,0
2016-09-25T00:49:56.873Z,0
2016-09-25T00:50:17.459Z,0
2016-09-25T00:50:38.032Z,0
2016-09-25T00:50:58.609Z,0
2016-09-25T00:51:19.192Z,0
2016-09-25T00:51:39.771Z,0
2016-09-25T00:52:00.339Z,0
2016-09-25T00:52:20.921Z,0
2016-09-25T00:52:41.497Z,0
2016-09-25T00:53:02.077Z,0
2016-09-25T00:53:22.653Z,0
2016-09-25T00:53:43.230Z,0
2016-09-25T00:54:03.818Z,0
2016-09-25T00:54:24.386Z,0
2016-09-25T00:54:44.960Z,0
2016-09-25T00:55:05.552Z,0
2016-09-25T00:55:26.140Z,0
2016-09-25T00:55:46.718Z,0
2016-09-25T00:56:07.298Z,0
2016-09-25T00:56:27.905Z,0
2016-09-25T00:56:48.478Z,0
2016-09-25T00:57:09.038Z,0
2016-09-25T00:57:29.623Z,0
2016-09-25T00:57:50.243Z,0
2016-09-25T00:58:10.825Z,0
2016-09-25T00:58:31.419Z,0
2016-09-25T00:58:52.000Z,0
2016-09-25T00:59:12.568Z,0
2016-09-25T00:59:33.159Z,0
2016-09-25T00:59:53.737Z,0
2016-09-25T01:00:14.361Z,0
2016-09-25T01:00:34.944Z,0
2016-09-25T01:00:55.521Z,0
2016-09-25T01:01:16.115Z,0
2016-09-25T01:01:36.724Z,0
2016-09-25T01:01:57.330Z,0
2016-09-25T01:02:17.904Z,0
2016-09-25T01:02:38.498Z,0
2016-09-25T01:02:59.086Z,0
2016-09-25T01:03:19.687Z,0
2016-09-25T01:03:40.284Z,0
2016-09-25T01:04:00.856Z,0
2016-09-25T01:04:21.430Z,0
2016-09-25T01:04:42.019Z,0
2016-09-25T01:05:02.600Z,0
2016-09-25T01:05:23.172Z,0
2016-09-25T01:05:43.795Z,0
2016-09-25T01:06:04.385Z,0
2016-09-25T01:06:24.963Z,0
2016-09-25T01:06:45.578Z,0
2016-09-25T01:07:06.157Z,0
2016-09-25T01:07:26.729Z,0
2016-09-25T01:07:47.339Z,0
2016-09-25T01:08:07.937Z,0
2016-09-25T01:08:28.522Z,0
2016-09-25T01:08:49.114Z,0
2016-09-25T01:09:09.703Z,0
2016-09-25T01:09:30.304Z,0
2016-09-25T01:09:50.870Z,0
2016-09-25T01:10:11.468Z,0
2016-09-25T01:10:32.052Z,0
2016-09-25T01:10:52.637Z,0
2016-09-25T01:11:13.235Z,0
2016-09-25T01:11:33.830Z,0
2016-09-25T01:11:54.423Z,0
2016-09-25T01:12:15.001Z,0
2016-09-25T01:12:35.584Z,0
2016-09-25T01:12:56.170Z,0
2016-09-25T01:13:16.749Z,0
2016-09-25T01:13:37.348Z,0
2016-09-25T01:13:57.929Z,0
2016-09-25T01:14:18.515Z,0
2016-09-25T01:14:39.107Z,0
2016-09-25T01:14:59.702Z,0
2016-09-25T01:15:20.302Z,0
2016-09-25T01:15:40.878Z,0
2016-09-25T01:16:01.446Z,0
2016-09-25T01:16:22.050Z,0
2016-09-25T01:16:42.661Z,0
2016-09-25T01:17:03.242Z,0
2016-09-25T01:17:23.814Z,0
2016-09-25T01:17:44.387Z,0
2016-09-25T01:18:04.964Z,0
2016-09-25T01:18:25.548Z,0
2016-09-25T01:18:46.118Z,0
2016-09-25T01:19:06.695Z,0
2016-09-25T01:19:27.287Z,0
2016-09-25T01:19:47.874Z,0
2016-09-25T01:20:08.471Z,0
2016-09-25T01:20:29.052Z,0
2016-09-25T01:20:49.642Z,0
2016-09-25T01:21:10.226Z,0
2016-09-25T01:21:30.801Z,0
2016-09-25T01:21:51.415Z,0
2016-09-25T01:22:11.999Z,0
2016-09-25T01:22:32.584Z,0
2016-09-25T01:22:53.153Z,0
2016-09-25T01:23:13.733Z,0
2016-09-25T01:23:34.325Z,0
2016-09-25T01:23:54.917Z,0
2016-09-25T01:24:15.489Z,0
2016-09-25T01:24:36.082Z,0
2016-09-25T01:24:56.655Z,0
2016-09-25T01:25:17.232Z,0
2016-09-25T01:25:37.829Z,0
2016-09-25T01:25:58.436Z,0
2016-09-25T01:26:19.029Z,0
2016-09-25T01:26:39.600Z,0
2016-09-25T01:27:00.207Z,0
2016-09-25T01:27:20.786Z,0
2016-09-25T01:27:41.369Z,0
2016-09-25T01:28:01.945Z,0
2016-09-25T01:28:22.535Z,0
2016-09-25T01:28:43.125Z,0
2016-09-25T01:29:03.723Z,0
2016-09-25T01:29:24.297Z,0
2016-09-25T01:29:44.865Z,0
2016-09-25T01:30:05.447Z,0
2016-09-25T01:30:26.028Z,0
2016-09-25T01:30:46.609Z,0
2016-09-25T01:31:07.187Z,0
2016-09-25T01:31:27.762Z,0
2016-09-25T01:31:48.337Z,0
2016-09-25T01:32:08.915Z,0
2016-09-25T01:32:29.490Z,0
2016-09-25T01:32:50.084Z,0
2016-09-25T01:33:10.682Z,0
2016-09-25T01:33:31.266Z,0
2016-09-25T01:33:51.829Z,0
2016-09-25T01:34:12.419Z,0
2016-09-25T01:34:33.022Z,0
2016-09-25T01:34:53.614Z,0
2016-09-25T01:35:14.213Z,0
2016-09-25T01:35:34.817Z,0
2016-09-25T01:35:55.395Z,0
2016-09-25T01:36:15.988Z,0
2016-09-25T01:36:36.574Z,0
2016-09-25T01:36:57.187Z,0
2016-09-25T01:37:17.777Z,0
2016-09-25T01:37:38.374Z,0
2016-09-25T01:37:58.964Z,0
2016-09-25T01:38:19.567Z,0
2016-09-25T01:38:40.182Z,0
2016-09-25T01:39:00.786Z,0
2016-09-25T01:39:21.359Z,0
2016-09-25T01:39:41.948Z,0
2016-09-25T01:40:02.557Z,0
2016-09-25T01:40:23.140Z,0
2016-09-25T01:40:43.732Z,0
2016-09-25T01:41:04.328Z,0
2016-09-25T01:41:24.911Z,0
2016-09-25T01:41:45.486Z,0
2016-09-25T01:42:06.104Z,0
2016-09-25T01:42:26.709Z,0
2016-09-25T01:42:47.323Z,0
2016-09-25T01:43:07.895Z,0
2016-09-25T01:43:28.505Z,0
2016-09-25T01:43:49.101Z,0
2016-09-25T01:44:09.713Z,0
2016-09-25T01:44:30.306Z,0
2016-09-25T01:44:50.903Z,0
2016-09-25T01:45:11.535Z,0
2016-09-25T01:45:32.183Z,0
2016-09-25T01:45:53.117Z,0
2016-09-25T01:46:13.729Z,0
2016-09-25T01:46:34.331Z,0
2016-09-25T01:46:54.949Z,0
2016-09-25T01:47:15.538Z,0
2016-09-25T01:47:36.126Z,0
2016-09-25T01:47:56.821Z,0
2016-09-25T01:48:17.576Z,0
2016-09-25T01:48:39.101Z,0
2016-09-25T01:48:59.705Z,0
2016-09-25T01:49:20.296Z,0
2016-09-25T01:49:41.110Z,0
2016-09-25T01:50:02.414Z,0
2016-09-25T01:50:23.147Z,0
2016-09-25T01:50:44.119Z,0
2016-09-25T01:51:04.702Z,0
2016-09-25T01:51:25.320Z,0
2016-09-25T01:51:45.954Z,0
2016-09-25T01:52:06.574Z,0
2016-09-25T01:52:27.171Z,0
2016-09-25T01:52:47.764Z,0
2016-09-25T01:53:08.357Z,0
2016-09-25T01:53:28.986Z,0
2016-09-25T01:53:49.606Z,0
2016-09-25T01:54:10.206Z,0
2016-09-25T01:54:30.811Z,0
2016-09-25T01:54:51.413Z,0
2016-09-25T01:55:12.013Z,0
2016-09-25T01:55:32.614Z,0
2016-09-25T01:55:53.210Z,0
2016-09-25T01:56:13.794Z,0
2016-09-25T01:56:34.407Z,0
2016-09-25T01:56:55.005Z,0
2016-09-25T01:57:15.601Z,0
2016-09-25T01:57:36.294Z,0
2016-09-25T01:57:56.888Z,0
2016-09-25T01:58:17.502Z,0
2016-09-25T01:58:38.117Z,0
2016-09-25T01:58:58.728Z,0
2016-09-25T01:59:19.320Z,0
2016-09-25T01:59:39.907Z,0
2016-09-25T02:00:00.500Z,0
2016-09-25T02:00:21.117Z,0
2016-09-25T02:00:41.705Z,0
2016-09-25T02:01:02.289Z,0
2016-09-25T02:01:22.874Z,0
2016-09-25T02:01:43.479Z,0
2016-09-25T02:02:04.096Z,0
2016-09-25T02:02:24.686Z,0
2016-09-25T02:02:45.282Z,0
2016-09-25T02:03:05.876Z,0
2016-09-25T02:03:26.477Z,0
2016-09-25T02:03:47.094Z,0
2016-09-25T02:04:07.680Z,0
2016-09-25T02:04:28.258Z,0
2016-09-25T02:04:48.875Z,0
2016-09-25T02:05:09.468Z,0
2016-09-25T02:05:30.062Z,0
2016-09-25T02:05:50.684Z,0
2016-09-25T02:06:11.265Z,0
2016-09-25T02:06:31.851Z,0
2016-09-25T02:06:52.456Z,0
2016-09-25T02:07:13.051Z,0
2016-09-25T02:07:33.638Z,0
2016-09-25T02:07:54.220Z,0
2016-09-25T02:08:14.801Z,0
2016-09-25T02:08:35.400Z,0
2016-09-25T02:08:56.018Z,0
2016-09-25T02:09:16.622Z,0
2016-09-25T02:09:37.208Z,0
2016-09-25T02:09:57.811Z,0
2016-09-25T02:10:18.409Z,0
2016-09-25T02:10:39.009Z,0
2016-09-25T02:10:59.596Z,0
2016-09-25T02:11:20.173Z,0
2016-09-25T02:11:40.759Z,0
2016-09-25T02:12:01.349Z,0
2016-09-25T02:12:21.955Z,0
2016-09-25T02:12:42.567Z,0
2016-09-25T02:13:03.158Z,0
2016-09-25T02:13:23.768Z,0
2016-09-25T02:13:44.358Z,0
2016-09-25T02:14:04.969Z,0
2016-09-25T02:14:25.565Z,0
2016-09-25T02:14:46.141Z,0
2016-09-25T02:15:06.749Z,0
2016-09-25T02:15:27.352Z,0
2016-09-25T02:15:47.952Z,0
2016-09-25T02:16:08.560Z,0
2016-09-25T02:16:29.154Z,0
2016-09-25T02:16:49.758Z,0
2016-09-25T02:17:10.363Z,0
2016-09-25T02:17:30.974Z,0
2016-09-25T02:17:51.565Z,0
2016-09-25T02:18:12.168Z,0
2016-09-25T02:18:32.779Z,0
2016-09-25T02:18:53.363Z,0
2016-09-25T02:19:13.958Z,0
2016-09-25T02:19:34.546Z,0
2016-09-25T02:19:55.149Z,0
2016-09-25T02:20:15.725Z,0
2016-09-25T02:20:36.313Z,0
2016-09-25T02:20:56.933Z,0
2016-09-25T02:21:17.542Z,0
2016-09-25T02:21:38.115Z,0
2016-09-25T02:21:58.705Z,0
2016-09-25T02:22:19.295Z,0
2016-09-25T02:22:39.890Z,0
2016-09-25T02:23:00.506Z,0
2016-09-25T02:23:21.090Z,0
2016-09-25T02:23:41.735Z,0
2016-09-25T02:24:02.322Z,0
2016-09-25T02:24:22.936Z,0
2016-09-25T02:24:43.528Z,0
2016-09-25T02:25:04.110Z,0
2016-09-25T02:25:24.707Z,0
2016-09-25T02:25:45.317Z,0
2016-09-25T02:26:05.901Z,0
2016-09-25T02:26:26.487Z,0
2016-09-25T02:26:47.079Z,0
2016-09-25T02:27:07.686Z,0
2016-09-25T02:27:28.299Z,0
2016-09-25T02:27:48.907Z,0
2016-09-25T02:28:09.492Z,0
2016-09-25T02:28:30.078Z,0
2016-09-25T02:28:50.666Z,0
2016-09-25T02:29:11.275Z,0
2016-09-25T02:29:31.881Z,0
2016-09-25T02:29:52.509Z,0
2016-09-25T02:30:13.116Z,0
2016-09-25T02:30:33.706Z,0
2016-09-25T02:30:55.981Z,0
2016-09-25T02:31:16.610Z,0
2016-09-25T02:31:37.194Z,0
2016-09-25T02:31:57.796Z,0
2016-09-25T02:32:18.385Z,0
2016-09-25T02:32:38.966Z,0
2016-09-25T02:32:59.565Z,0
2016-09-25T02:33:20.148Z,0
2016-09-25T02:33:40.749Z,0
2016-09-25T02:34:01.358Z,0
2016-09-25T02:34:21.953Z,0
2016-09-25T02:34:42.552Z,0
2016-09-25T02:35:03.158Z,0
2016-09-25T02:35:23.756Z,0
2016-09-25T02:35:44.343Z,0
2016-09-25T02:36:04.967Z,0
2016-09-25T02:36:25.549Z,0
2016-09-25T02:36:46.133Z,0
2016-09-25T02:37:06.718Z,0
2016-09-25T02:37:27.346Z,0
2016-09-25T02:37:47.956Z,0
2016-09-25T02:38:08.549Z,0
2016-09-25T02:38:29.140Z,0
2016-09-25T02:38:49.728Z,0
2016-09-25T02:39:10.318Z,0
2016-09-25T02:39:30.891Z,0
2016-09-25T02:39:51.474Z,0
2016-09-25T02:40:12.052Z,0
2016-09-25T02:40:32.644Z,0
2016-09-25T02:40:53.242Z,0
2016-09-25T02:41:13.836Z,0
2016-09-25T02:41:34.433Z,0
2016-09-25T02:41:55.028Z,0
2016-09-25T02:42:15.646Z,0
2016-09-25T02:42:36.245Z,0
2016-09-25T02:42:56.828Z,0
2016-09-25T02:43:17.411Z,0
2016-09-25T02:43:38.014Z,0
2016-09-25T02:43:58.602Z,0
2016-09-25T02:44:19.204Z,0
2016-09-25T02:44:39.778Z,0
2016-09-25T02:45:00.352Z,0
2016-09-25T02:45:20.966Z,0
2016-09-25T02:45:41.563Z,0
2016-09-25T02:46:02.166Z,0
2016-09-25T02:46:22.751Z,0
2016-09-25T02:46:43.333Z,0
2016-09-25T02:47:03.910Z,0
2016-09-25T02:47:24.528Z,0
2016-09-25T02:47:45.155Z,0
2016-09-25T02:48:05.756Z,0
2016-09-25T02:48:26.331Z,0
2016-09-25T02:48:46.924Z,0
2016-09-25T02:49:07.530Z,0
2016-09-25T02:49:28.152Z,0
2016-09-25T02:49:48.767Z,0
2016-09-25T02:50:09.372Z,0
2016-09-25T02:50:29.955Z,0
2016-09-25T02:50:50.551Z,0
2016-09-25T02:51:11.146Z,0
2016-09-25T02:51:31.758Z,0
2016-09-25T02:51:52.350Z,0
2016-09-25T02:52:12.944Z,0
2016-09-25T02:52:33.545Z,0
2016-09-25T02:52:54.134Z,0
2016-09-25T02:53:14.738Z,0
2016-09-25T02:53:35.326Z,0
2016-09-25T02:53:55.896Z,0
2016-09-25T02:54:16.479Z,0
2016-09-25T02:54:37.097Z,0
2016-09-25T02:54:57.683Z,0
2016-09-25T02:55:18.300Z,0
2016-09-25T02:55:38.889Z,0
2016-09-25T02:55:59.472Z,0
2016-09-25T02:56:20.085Z,0
2016-09-25T02:56:40.663Z,0
2016-09-25T02:57:01.281Z,0
2016-09-25T02:57:21.890Z,0
2016-09-25T02:57:42.502Z,0
2016-09-25T02:58:03.094Z,0
2016-09-25T02:58:23.713Z,0
2016-09-25T02:58:44.314Z,0
2016-09-25T02:59:04.906Z,0
2016-09-25T02:59:25.500Z,0
2016-09-25T02:59:46.083Z,0
2016-09-25T03:00:06.677Z,0
2016-09-25T03:00:27.293Z,0
2016-09-25T03:00:47.910Z,0
2016-09-25T03:01:08.523Z,0
2016-09-25T03:01:29.117Z,0
2016-09-25T03:01:49.710Z,0
2016-09-25T03:02:10.323Z,0
2016-09-25T03:02:30.920Z,0
2016-09-25T03:02:51.529Z,0
2016-09-25T03:03:12.145Z,0
2016-09-25T03:03:32.753Z,0
2016-09-25T03:03:53.345Z,0
2016-09-25T03:04:13.950Z,0
2016-09-25T03:04:34.559Z,0
2016-09-25T03:04:55.149Z,0
2016-09-25T03:05:15.719Z,0
2016-09-25T03:05:36.295Z,0
2016-09-25T03:05:56.940Z,0
2016-09-25T03:06:17.543Z,0
2016-09-25T03:06:38.139Z,0
2016-09-25T03:06:58.732Z,0
2016-09-25T03:07:19.343Z,0
2016-09-25T03:07:39.946Z,0
2016-09-25T03:08:00.577Z,0
2016-09-25T03:08:21.160Z,0
2016-09-25T03:08:41.772Z,0
2016-09-25T03:09:02.368Z,0
2016-09-25T03:09:22.982Z,0
2016-09-25T03:09:43.599Z,0
2016-09-25T03:10:04.175Z,0
2016-09-25T03:10:24.774Z,0
2016-09-25T03:10:45.382Z,0
2016-09-25T03:11:05.996Z,0
2016-09-25T03:11:26.603Z,0
2016-09-25T03:11:47.209Z,0
2016-09-25T03:12:07.787Z,0
2016-09-25T03:12:28.379Z,0
2016-09-25T03:12:48.964Z,0
2016-09-25T03:13:09.542Z,0
2016-09-25T03:13:30.158Z,0
2016-09-25T03:13:50.758Z,0
2016-09-25T03:14:11.361Z,0
2016-09-25T03:14:31.969Z,0
2016-09-25T03:14:52.599Z,0
2016-09-25T03:15:13.229Z,0
2016-09-25T03:15:33.815Z,0
2016-09-25T03:15:54.421Z,0
2016-09-25T03:16:15.003Z,0
2016-09-25T03:16:35.591Z,0
2016-09-25T03:16:56.190Z,0
2016-09-25T03:17:16.834Z,0
2016-09-25T03:17:37.421Z,0
2016-09-25T03:17:57.998Z,0
2016-09-25T03:18:18.623Z,0
2016-09-25T03:18:39.209Z,0
2016-09-25T03:18:59.806Z,0
2016-09-25T03:19:20.438Z,0
2016-09-25T03:19:41.063Z,0
2016-09-25T03:20:01.671Z,0
2016-09-25T03:20:22.256Z,0
2016-09-25T03:20:42.868Z,0
2016-09-25T03:21:03.458Z,0
2016-09-25T03:21:24.066Z,0
2016-09-25T03:21:44.654Z,0
2016-09-25T03:22:05.236Z,0
2016-09-25T03:22:25.843Z,0
2016-09-25T03:22:46.416Z,0
2016-09-25T03:23:07.036Z,0
2016-09-25T03:23:27.629Z,0
2016-09-25T03:23:48.199Z,0
2016-09-25T03:24:08.794Z,0
2016-09-25T03:24:29.420Z,0
2016-09-25T03:24:50.026Z,0
2016-09-25T03:25:10.641Z,0
2016-09-25T03:25:31.235Z,0
2016-09-25T03:25:51.830Z,0
2016-09-25T03:26:12.433Z,0
2016-09-25T03:26:33.032Z,0
2016-09-25T03:26:53.623Z,0
2016-09-25T03:27:14.211Z,0
2016-09-25T03:27:34.792Z,0
2016-09-25T03:27:55.385Z,0
2016-09-25T03:28:16.011Z,0
2016-09-25T03:28:36.602Z,0
2016-09-25T03:28:57.242Z,0
2016-09-25T03:29:17.846Z,0
2016-09-25T03:29:38.472Z,0
2016-09-25T03:29:59.066Z,0
2016-09-25T03:30:19.667Z,0
2016-09-25T03:30:40.258Z,0
2016-09-25T03:31:00.846Z,0
2016-09-25T03:31:21.457Z,0
2016-09-25T03:31:42.044Z,0
2016-09-25T03:32:02.611Z,0
2016-09-25T03:32:23.204Z,0
2016-09-25T03:32:43.798Z,0
2016-09-25T03:33:04.434Z,0
2016-09-25T03:33:25.032Z,0
2016-09-25T03:33:45.624Z,0
2016-09-25T03:34:06.199Z,0
2016-09-25T03:34:26.809Z,0
2016-09-25T03:34:47.388Z,0
2016-09-25T03:35:07.987Z,0
2016-09-25T03:35:28.577Z,0
2016-09-25T03:35:49.193Z,0
2016-09-25T03:36:09.802Z,0
2016-09-25T03:36:30.396Z,0
2016-09-25T03:36:51.017Z,0
2016-09-25T03:37:11.595Z,0
2016-09-25T03:37:32.205Z,0
2016-09-25T03:37:52.804Z,0
2016-09-25T03:38:13.390Z,0
2016-09-25T03:38:33.983Z,0
2016-09-25T03:38:54.577Z,0
2016-09-25T03:39:15.191Z,0
2016-09-25T03:39:35.804Z,0
2016-09-25T03:39:56.404Z,0
2016-09-25T03:40:17.025Z,0
2016-09-25T03:40:37.598Z,0
2016-09-25T03:40:58.212Z,0
2016-09-25T03:41:18.806Z,0
2016-09-25T03:41:39.414Z,0
2016-09-25T03:42:00.021Z,0
2016-09-25T03:42:20.586Z,0
2016-09-25T03:42:41.191Z,0
2016-09-25T03:43:01.805Z,0
2016-09-25T03:43:22.408Z,0
2016-09-25T03:43:43.000Z,0
2016-09-25T03:44:03.584Z,0
2016-09-25T03:44:24.182Z,0
2016-09-25T03:44:44.783Z,0
2016-09-25T03:45:05.391Z,0
2016-09-25T03:45:26.143Z,0
2016-09-25T03:45:46.747Z,0
2016-09-25T03:46:07.353Z,0
2016-09-25T03:46:27.961Z,0
2016-09-25T03:46:48.545Z,0
2016-09-25T03:47:09.183Z,0
2016-09-25T03:47:29.780Z,0
2016-09-25T03:47:50.381Z,0
2016-09-25T03:48:10.985Z,0
2016-09-25T03:48:31.577Z,0
2016-09-25T03:48:52.188Z,0
2016-09-25T03:49:12.814Z,0
2016-09-25T03:49:33.422Z,0
2016-09-25T03:49:54.024Z,0
2016-09-25T03:50:14.633Z,0
2016-09-25T03:50:35.223Z,0
2016-09-25T03:50:55.817Z,0
2016-09-25T03:51:16.429Z,0
2016-09-25T03:51:37.024Z,0
2016-09-25T03:51:57.631Z,0
2016-09-25T03:52:18.230Z,0
2016-09-25T03:52:38.828Z,0
2016-09-25T03:52:59.423Z,0
2016-09-25T03:53:20.017Z,0
2016-09-25T03:53:40.621Z,0
2016-09-25T03:54:01.223Z,0
2016-09-25T03:54:21.834Z,0
2016-09-25T03:54:42.435Z,0
2016-09-25T03:55:03.003Z,0
2016-09-25T03:55:23.597Z,0
2016-09-25T03:55:44.203Z,0
2016-09-25T03:56:04.794Z,0
2016-09-25T03:56:25.390Z,0
2016-09-25T03:56:45.979Z,0
2016-09-25T03:57:06.573Z,0
2016-09-25T03:57:27.184Z,0
2016-09-25T03:57:47.865Z,0
2016-09-25T03:58:08.474Z,0
2016-09-25T03:58:29.080Z,0
2016-09-25T03:58:49.681Z,0
2016-09-25T03:59:10.316Z,0
2016-09-25T03:59:30.907Z,0
2016-09-25T03:59:51.505Z,0
2016-09-25T04:00:12.114Z,0
2016-09-25T04:00:32.734Z,0
2016-09-25T04:00:53.330Z,0
2016-09-25T04:01:13.911Z,0
2016-09-25T04:01:34.521Z,0
2016-09-25T04:01:55.154Z,0
2016-09-25T04:02:15.816Z,0
2016-09-25T04:02:36.433Z,0
2016-09-25T04:02:57.034Z,0
2016-09-25T04:03:17.624Z,0
2016-09-25T04:03:38.210Z,0
2016-09-25T04:03:58.828Z,0
2016-09-25T04:04:19.446Z,0
2016-09-25T04:04:40.041Z,0
2016-09-25T04:05:00.668Z,0
2016-09-25T04:05:21.269Z,0
2016-09-25T04:05:41.882Z,0
2016-09-25T04:06:02.477Z,0
2016-09-25T04:06:23.083Z,0
2016-09-25T04:06:43.679Z,0
2016-09-25T04:07:04.283Z,0
2016-09-25T04:07:24.887Z,0
2016-09-25T04:07:45.485Z,0
2016-09-25T04:08:06.067Z,0
2016-09-25T04:08:26.675Z,0
2016-09-25T04:08:47.290Z,0
2016-09-25T04:09:07.891Z,0
2016-09-25T04:09:28.470Z,0
2016-09-25T04:09:49.049Z,0
2016-09-25T04:10:09.666Z,0
2016-09-25T04:10:30.263Z,0
2016-09-25T04:10:50.881Z,0
2016-09-25T04:11:11.492Z,0
2016-09-25T04:11:32.084Z,0
2016-09-25T04:11:52.683Z,0
2016-09-25T04:12:13.286Z,0
2016-09-25T04:12:33.904Z,0
2016-09-25T04:12:54.511Z,0
2016-09-25T04:13:15.108Z,0
2016-09-25T04:13:35.704Z,0
2016-09-25T04:13:56.315Z,0
2016-09-25T04:14:16.914Z,0
2016-09-25T04:14:37.517Z,0
2016-09-25T04:14:58.115Z,0
2016-09-25T04:15:18.719Z,0
2016-09-25T04:15:39.329Z,0
2016-09-25T04:15:59.952Z,0
2016-09-25T04:16:20.572Z,0
2016-09-25T04:16:41.171Z,0
2016-09-25T04:17:01.767Z,0
2016-09-25T04:17:22.349Z,0
2016-09-25T04:17:42.990Z,0
2016-09-25T04:18:03.561Z,0
2016-09-25T04:18:24.167Z,0
2016-09-25T04:18:44.761Z,0
2016-09-25T04:19:05.346Z,0
2016-09-25T04:19:25.935Z,0
2016-09-25T04:19:46.550Z,0
2016-09-25T04:20:07.146Z,0
2016-09-25T04:20:27.749Z,0
2016-09-25T04:20:48.341Z,0
2016-09-25T04:21:08.939Z,0
2016-09-25T04:21:29.534Z,0
2016-09-25T04:21:50.125Z,0
2016-09-25T04:22:10.756Z,0
2016-09-25T04:22:31.374Z,0
2016-09-25T04:22:51.991Z,0
2016-09-25T04:23:12.583Z,0
2016-09-25T04:23:33.182Z,0
2016-09-25T04:23:53.785Z,0
2016-09-25T04:24:14.397Z,0
2016-09-25T04:24:34.988Z,4
2016-09-25T04:24:55.584Z,4
2016-09-25T04:25:16.176Z,4
2016-09-25T04:25:36.773Z,4
2016-09-25T04:25:57.373Z,4
2016-09-25T04:26:18.002Z,4
2016-09-25T04:26:38.587Z,0
2016-09-25T04:26:59.178Z,0
2016-09-25T04:27:19.755Z,0
2016-09-25T04:27:40.355Z,0
2016-09-25T04:28:00.953Z,0
2016-09-25T04:28:21.530Z,4
2016-09-25T04:28:42.126Z,4
2016-09-25T04:29:02.744Z,4
2016-09-25T04:29:23.338Z,4
2016-09-25T04:29:43.937Z,4
2016-09-25T04:30:04.538Z,4
2016-09-25T04:30:25.163Z,4
2016-09-25T04:30:45.757Z,4
2016-09-25T04:31:06.362Z,4
2016-09-25T04:31:26.978Z,4
2016-09-25T04:31:47.571Z,4
2016-09-25T04:32:08.176Z,8
2016-09-25T04:32:28.783Z,8
2016-09-25T04:32:49.372Z,4
2016-09-25T04:33:09.987Z,4
2016-09-25T04:33:30.602Z,8
2016-09-25T04:33:51.195Z,4
2016-09-25T04:34:11.798Z,8
2016-09-25T04:34:32.398Z,8
2016-09-25T04:34:52.985Z,8
2016-09-25T04:35:13.567Z,8
2016-09-25T04:35:34.182Z,12
2016-09-25T04:35:54.793Z,12
2016-09-25T04:36:15.362Z,12
2016-09-25T04:36:35.961Z,8
2016-09-25T04:36:56.549Z,12
2016-09-25T04:37:17.159Z,12
2016-09-25T04:37:37.766Z,16
2016-09-25T04:37:58.357Z,16
2016-09-25T04:38:18.939Z,16
2016-09-25T04:38:39.547Z,16
2016-09-25T04:39:00.158Z,20
2016-09-25T04:39:20.773Z,16
2016-09-25T04:39:41.365Z,20
2016-09-25T04:40:01.982Z,24
2016-09-25T04:40:22.586Z,20
2016-09-25T04:40:43.185Z,20
2016-09-25T04:41:03.783Z,24
2016-09-25T04:41:24.362Z,24
2016-09-25T04:41:44.972Z,24
2016-09-25T04:42:05.564Z,28
2016-09-25T04:42:26.173Z,32
2016-09-25T04:42:46.770Z,32
2016-09-25T04:43:07.373Z,32
2016-09-25T04:43:27.986Z,36
2016-09-25T04:43:48.587Z,36
2016-09-25T04:44:09.195Z,40
2016-09-25T04:44:29.806Z,44
2016-09-25T04:44:50.402Z,44
2016-09-25T04:45:10.997Z,48
2016-09-25T04:45:31.618Z,48
2016-09-25T04:45:52.215Z,56
2016-09-25T04:46:12.823Z,56
2016-09-25T04:46:33.414Z,60
2016-09-25T04:46:54.010Z,60
2016-09-25T04:47:14.614Z,64
2016-09-25T04:47:35.216Z,72
2016-09-25T04:47:55.815Z,72
2016-09-25T04:48:16.414Z,80
2016-09-25T04:48:37.035Z,80
2016-09-25T04:48:57.616Z,80
2016-09-25T04:49:18.245Z,88
2016-09-25T04:49:38.857Z,88
2016-09-25T04:49:59.456Z,92
2016-09-25T04:50:20.041Z,96
2016-09-25T04:50:40.655Z,100
2016-09-25T04:51:01.268Z,100
2016-09-25T04:51:21.874Z,104
2016-09-25T04:51:42.461Z,104
2016-09-25T04:52:03.068Z,112
2016-09-25T04:52:23.673Z,112
2016-09-25T04:52:44.266Z,116
2016-09-25T04:53:04.850Z,120
2016-09-25T04:53:25.429Z,124
2016-09-25T04:53:46.020Z,128
2016-09-25T04:54:06.676Z,128
2016-09-25T04:54:27.277Z,136
2016-09-25T04:54:47.863Z,140
2016-09-25T04:55:08.446Z,144
2016-09-25T04:55:29.049Z,148
2016-09-25T04:55:49.645Z,148
2016-09-25T04:56:10.264Z,152
2016-09-25T04:56:30.865Z,160
2016-09-25T04:56:51.482Z,164
2016-09-25T04:57:12.087Z,168
2016-09-25T04:57:32.691Z,176
2016-09-25T04:57:53.319Z,180
2016-09-25T04:58:13.921Z,184
2016-09-25T04:58:34.504Z,192
2016-09-25T04:58:55.105Z,196
2016-09-25T04:59:15.742Z,204
2016-09-25T04:59:36.345Z,212
2016-09-25T04:59:56.931Z,216
2016-09-25T05:00:17.542Z,220
2016-09-25T05:00:38.154Z,228
2016-09-25T05:00:58.775Z,232
2016-09-25T05:01:19.381Z,240
2016-09-25T05:01:39.962Z,244
2016-09-25T05:02:00.558Z,248
2016-09-25T05:02:21.273Z,260
2016-09-25T05:02:41.882Z,264
2016-09-25T05:03:02.486Z,272